sensor_id;sensor_type;location;lat;lon;timestamp;P1;durP1;ratioP1;P2;durP2;ratioP2
61962;SDS011;47927;42.646;23.096;2023-04-04T00:00:14;0.85;;;0.63;;
61962;SDS011;47927;42.646;23.096;2023-04-04T00:02:40;1.25;;;0.60;;
61962;SDS011;47927;42.646;23.096;2023-04-04T00:05:05;0.85;;;0.55;;
61962;SDS011;47927;42.646;23.096;2023-04-04T00:07:32;1.35;;;0.75;;
61962;SDS011;47927;42.646;23.096;2023-04-04T00:09:57;0.80;;;0.60;;
61962;SDS011;47927;42.646;23.096;2023-04-04T00:12:23;1.38;;;0.60;;
61962;SDS011;47927;42.646;23.096;2023-04-04T00:14:49;3.78;;;1.55;;
61962;SDS011;47927;42.646;23.096;2023-04-04T00:17:16;2.47;;;0.90;;
61962;SDS011;47927;42.646;23.096;2023-04-04T00:19:41;0.80;;;0.52;;
61962;SDS011;47927;42.646;23.096;2023-04-04T00:22:08;1.40;;;0.73;;
61962;SDS011;47927;42.646;23.096;2023-04-04T00:24:33;0.95;;;0.60;;
61962;SDS011;47927;42.646;23.096;2023-04-04T00:26:59;1.08;;;0.70;;
61962;SDS011;47927;42.646;23.096;2023-04-04T00:29:25;1.50;;;1.10;;
61962;SDS011;47927;42.646;23.096;2023-04-04T00:31:50;0.90;;;0.60;;
61962;SDS011;47927;42.646;23.096;2023-04-04T00:34:16;1.05;;;0.70;;
61962;SDS011;47927;42.646;23.096;2023-04-04T00:36:41;2.10;;;1.30;;
61962;SDS011;47927;42.646;23.096;2023-04-04T00:39:08;1.40;;;0.90;;
61962;SDS011;47927;42.646;23.096;2023-04-04T00:41:33;2.17;;;0.93;;
61962;SDS011;47927;42.646;23.096;2023-04-04T00:44:00;1.73;;;0.85;;
61962;SDS011;47927;42.646;23.096;2023-04-04T00:46:25;1.45;;;1.00;;
61962;SDS011;47927;42.646;23.096;2023-04-04T00:48:52;2.88;;;1.30;;
61962;SDS011;47927;42.646;23.096;2023-04-04T00:51:18;5.95;;;1.08;;
61962;SDS011;47927;42.646;23.096;2023-04-04T00:53:45;4.40;;;1.58;;
61962;SDS011;47927;42.646;23.096;2023-04-04T00:56:12;7.72;;;1.77;;
61962;SDS011;47927;42.646;23.096;2023-04-04T00:58:40;7.43;;;1.92;;
61962;SDS011;47927;42.646;23.096;2023-04-04T01:01:07;8.75;;;1.83;;
61962;SDS011;47927;42.646;23.096;2023-04-04T01:03:35;4.88;;;1.65;;
61962;SDS011;47927;42.646;23.096;2023-04-04T01:06:01;4.85;;;1.45;;
61962;SDS011;47927;42.646;23.096;2023-04-04T01:08:28;4.03;;;1.90;;
61962;SDS011;47927;42.646;23.096;2023-04-04T01:10:54;2.10;;;0.82;;
61962;SDS011;47927;42.646;23.096;2023-04-04T01:13:20;2.53;;;1.10;;
61962;SDS011;47927;42.646;23.096;2023-04-04T01:15:47;3.28;;;1.00;;
61962;SDS011;47927;42.646;23.096;2023-04-04T01:18:13;2.35;;;0.90;;
61962;SDS011;47927;42.646;23.096;2023-04-04T01:20:43;1.50;;;0.70;;
61962;SDS011;47927;42.646;23.096;2023-04-04T01:23:20;1.60;;;1.00;;
61962;SDS011;47927;42.646;23.096;2023-04-04T01:25:49;1.45;;;0.88;;
61962;SDS011;47927;42.646;23.096;2023-04-04T01:28:25;1.65;;;0.60;;
61962;SDS011;47927;42.646;23.096;2023-04-04T01:30:51;1.42;;;0.80;;
61962;SDS011;47927;42.646;23.096;2023-04-04T01:33:18;2.10;;;0.88;;
61962;SDS011;47927;42.646;23.096;2023-04-04T01:38:17;0.80;;;0.50;;
61962;SDS011;47927;42.646;23.096;2023-04-04T01:40:54;1.00;;;0.50;;
61962;SDS011;47927;42.646;23.096;2023-04-04T01:43:22;1.63;;;0.63;;
61962;SDS011;47927;42.646;23.096;2023-04-04T01:45:48;1.25;;;0.60;;
61962;SDS011;47927;42.646;23.096;2023-04-04T01:48:15;1.65;;;0.75;;
61962;SDS011;47927;42.646;23.096;2023-04-04T01:50:42;1.23;;;0.70;;
61962;SDS011;47927;42.646;23.096;2023-04-04T01:53:08;2.05;;;0.93;;
61962;SDS011;47927;42.646;23.096;2023-04-04T01:55:34;1.02;;;0.65;;
61962;SDS011;47927;42.646;23.096;2023-04-04T01:58:00;1.67;;;0.80;;
61962;SDS011;47927;42.646;23.096;2023-04-04T02:00:26;1.70;;;0.68;;
61962;SDS011;47927;42.646;23.096;2023-04-04T02:02:52;1.48;;;0.80;;
61962;SDS011;47927;42.646;23.096;2023-04-04T02:05:17;2.97;;;0.85;;
61962;SDS011;47927;42.646;23.096;2023-04-04T02:07:47;1.88;;;0.90;;
61962;SDS011;47927;42.646;23.096;2023-04-04T02:10:36;1.45;;;0.77;;
61962;SDS011;47927;42.646;23.096;2023-04-04T02:13:02;2.08;;;0.90;;
61962;SDS011;47927;42.646;23.096;2023-04-04T02:15:27;3.00;;;0.77;;
61962;SDS011;47927;42.646;23.096;2023-04-04T02:17:53;2.33;;;0.85;;
61962;SDS011;47927;42.646;23.096;2023-04-04T02:20:19;0.75;;;0.50;;
61962;SDS011;47927;42.646;23.096;2023-04-04T02:22:51;2.55;;;0.70;;
61962;SDS011;47927;42.646;23.096;2023-04-04T02:25:18;3.10;;;1.70;;
61962;SDS011;47927;42.646;23.096;2023-04-04T02:27:48;2.30;;;1.20;;
61962;SDS011;47927;42.646;23.096;2023-04-04T02:30:13;2.00;;;1.20;;
61962;SDS011;47927;42.646;23.096;2023-04-04T02:32:39;1.58;;;0.80;;
61962;SDS011;47927;42.646;23.096;2023-04-04T02:35:06;1.73;;;0.60;;
61962;SDS011;47927;42.646;23.096;2023-04-04T02:37:34;2.33;;;0.70;;
61962;SDS011;47927;42.646;23.096;2023-04-04T02:40:02;1.48;;;0.70;;
61962;SDS011;47927;42.646;23.096;2023-04-04T02:42:31;2.07;;;0.70;;
61962;SDS011;47927;42.646;23.096;2023-04-04T02:44:57;2.10;;;0.98;;
61962;SDS011;47927;42.646;23.096;2023-04-04T02:47:23;2.65;;;0.80;;
61962;SDS011;47927;42.646;23.096;2023-04-04T02:49:48;2.35;;;1.10;;
61962;SDS011;47927;42.646;23.096;2023-04-04T02:52:14;2.00;;;0.82;;
61962;SDS011;47927;42.646;23.096;2023-04-04T02:54:43;1.77;;;0.77;;
61962;SDS011;47927;42.646;23.096;2023-04-04T02:57:11;1.75;;;0.90;;
61962;SDS011;47927;42.646;23.096;2023-04-04T02:59:37;1.05;;;0.60;;
61962;SDS011;47927;42.646;23.096;2023-04-04T03:02:02;7.00;;;0.82;;
61962;SDS011;47927;42.646;23.096;2023-04-04T03:04:29;1.70;;;0.88;;
61962;SDS011;47927;42.646;23.096;2023-04-04T03:06:54;1.60;;;0.90;;
61962;SDS011;47927;42.646;23.096;2023-04-04T03:09:20;1.38;;;0.70;;
61962;SDS011;47927;42.646;23.096;2023-04-04T03:11:46;2.47;;;1.40;;
61962;SDS011;47927;42.646;23.096;2023-04-04T03:14:11;5.75;;;2.28;;
61962;SDS011;47927;42.646;23.096;2023-04-04T03:16:38;3.10;;;1.60;;
61962;SDS011;47927;42.646;23.096;2023-04-04T03:19:05;1.15;;;0.60;;
61962;SDS011;47927;42.646;23.096;2023-04-04T03:21:31;1.00;;;0.60;;
61962;SDS011;47927;42.646;23.096;2023-04-04T03:23:57;1.38;;;0.70;;
61962;SDS011;47927;42.646;23.096;2023-04-04T03:26:24;1.98;;;0.93;;
61962;SDS011;47927;42.646;23.096;2023-04-04T03:28:52;1.70;;;0.90;;
61962;SDS011;47927;42.646;23.096;2023-04-04T03:31:20;1.85;;;0.88;;
61962;SDS011;47927;42.646;23.096;2023-04-04T03:33:46;2.67;;;0.82;;
61962;SDS011;47927;42.646;23.096;2023-04-04T03:36:12;1.42;;;0.80;;
61962;SDS011;47927;42.646;23.096;2023-04-04T03:38:38;2.08;;;0.82;;
61962;SDS011;47927;42.646;23.096;2023-04-04T03:41:04;1.42;;;0.70;;
61962;SDS011;47927;42.646;23.096;2023-04-04T03:43:30;2.53;;;1.40;;
61962;SDS011;47927;42.646;23.096;2023-04-04T03:46:00;8.82;;;3.65;;
61962;SDS011;47927;42.646;23.096;2023-04-04T03:48:26;3.30;;;1.63;;
61962;SDS011;47927;42.646;23.096;2023-04-04T03:50:52;3.55;;;1.60;;
61962;SDS011;47927;42.646;23.096;2023-04-04T03:53:18;3.13;;;1.10;;
61962;SDS011;47927;42.646;23.096;2023-04-04T03:55:48;2.47;;;0.88;;
61962;SDS011;47927;42.646;23.096;2023-04-04T03:58:13;1.95;;;0.70;;
61962;SDS011;47927;42.646;23.096;2023-04-04T04:00:39;2.35;;;0.70;;
61962;SDS011;47927;42.646;23.096;2023-04-04T04:03:04;2.50;;;0.90;;
61962;SDS011;47927;42.646;23.096;2023-04-04T04:05:30;3.20;;;1.65;;
61962;SDS011;47927;42.646;23.096;2023-04-04T04:07:55;3.50;;;1.30;;
61962;SDS011;47927;42.646;23.096;2023-04-04T04:10:21;2.13;;;1.15;;
61962;SDS011;47927;42.646;23.096;2023-04-04T04:12:47;3.50;;;1.30;;
61962;SDS011;47927;42.646;23.096;2023-04-04T04:15:12;4.78;;;1.50;;
61962;SDS011;47927;42.646;23.096;2023-04-04T04:17:40;8.05;;;1.65;;
61962;SDS011;47927;42.646;23.096;2023-04-04T04:20:07;3.33;;;1.70;;
61962;SDS011;47927;42.646;23.096;2023-04-04T04:22:38;4.20;;;2.60;;
61962;SDS011;47927;42.646;23.096;2023-04-04T04:25:09;4.70;;;2.42;;
61962;SDS011;47927;42.646;23.096;2023-04-04T04:27:36;4.47;;;2.63;;
61962;SDS011;47927;42.646;23.096;2023-04-04T04:30:02;3.63;;;2.15;;
61962;SDS011;47927;42.646;23.096;2023-04-04T04:32:34;3.38;;;2.00;;
61962;SDS011;47927;42.646;23.096;2023-04-04T04:34:59;4.22;;;1.95;;
61962;SDS011;47927;42.646;23.096;2023-04-04T04:37:28;2.58;;;1.65;;
61962;SDS011;47927;42.646;23.096;2023-04-04T04:39:55;4.82;;;2.25;;
61962;SDS011;47927;42.646;23.096;2023-04-04T04:42:44;3.70;;;2.38;;
61962;SDS011;47927;42.646;23.096;2023-04-04T04:45:11;3.70;;;1.98;;
61962;SDS011;47927;42.646;23.096;2023-04-04T04:47:41;4.65;;;2.25;;
61962;SDS011;47927;42.646;23.096;2023-04-04T04:50:08;3.40;;;2.10;;
61962;SDS011;47927;42.646;23.096;2023-04-04T04:52:42;3.72;;;1.90;;
61962;SDS011;47927;42.646;23.096;2023-04-04T04:55:08;3.38;;;1.95;;
61962;SDS011;47927;42.646;23.096;2023-04-04T04:57:37;4.15;;;2.33;;
61962;SDS011;47927;42.646;23.096;2023-04-04T05:00:10;4.07;;;2.72;;
61962;SDS011;47927;42.646;23.096;2023-04-04T05:02:36;4.05;;;2.40;;
61962;SDS011;47927;42.646;23.096;2023-04-04T05:05:02;7.18;;;4.88;;
61962;SDS011;47927;42.646;23.096;2023-04-04T05:07:30;7.50;;;5.32;;
61962;SDS011;47927;42.646;23.096;2023-04-04T05:09:56;6.68;;;3.88;;
61962;SDS011;47927;42.646;23.096;2023-04-04T05:12:22;3.70;;;1.52;;
61962;SDS011;47927;42.646;23.096;2023-04-04T05:14:50;2.85;;;1.15;;
61962;SDS011;47927;42.646;23.096;2023-04-04T05:17:16;2.00;;;1.00;;
61962;SDS011;47927;42.646;23.096;2023-04-04T05:19:42;4.85;;;1.50;;
61962;SDS011;47927;42.646;23.096;2023-04-04T05:22:11;2.13;;;1.33;;
61962;SDS011;47927;42.646;23.096;2023-04-04T05:24:45;2.70;;;1.20;;
61962;SDS011;47927;42.646;23.096;2023-04-04T05:27:13;5.10;;;1.30;;
61962;SDS011;47927;42.646;23.096;2023-04-04T05:32:11;2.20;;;1.30;;
61962;SDS011;47927;42.646;23.096;2023-04-04T05:34:38;2.45;;;1.42;;
61962;SDS011;47927;42.646;23.096;2023-04-04T05:37:07;3.15;;;1.50;;
61962;SDS011;47927;42.646;23.096;2023-04-04T05:39:33;3.50;;;1.90;;
61962;SDS011;47927;42.646;23.096;2023-04-04T05:42:04;4.95;;;2.88;;
61962;SDS011;47927;42.646;23.096;2023-04-04T05:44:34;4.85;;;2.75;;
61962;SDS011;47927;42.646;23.096;2023-04-04T05:47:02;4.63;;;2.60;;
61962;SDS011;47927;42.646;23.096;2023-04-04T05:49:28;6.50;;;2.70;;
61962;SDS011;47927;42.646;23.096;2023-04-04T05:51:58;4.55;;;2.70;;
61962;SDS011;47927;42.646;23.096;2023-04-04T05:54:24;6.57;;;2.78;;
61962;SDS011;47927;42.646;23.096;2023-04-04T05:56:50;5.18;;;2.80;;
61962;SDS011;47927;42.646;23.096;2023-04-04T05:59:39;4.80;;;3.03;;
61962;SDS011;47927;42.646;23.096;2023-04-04T06:02:07;5.38;;;2.80;;
61962;SDS011;47927;42.646;23.096;2023-04-04T06:04:36;4.05;;;2.47;;
61962;SDS011;47927;42.646;23.096;2023-04-04T06:07:05;4.05;;;2.60;;
61962;SDS011;47927;42.646;23.096;2023-04-04T06:09:31;7.30;;;3.10;;
61962;SDS011;47927;42.646;23.096;2023-04-04T06:11:56;5.40;;;2.92;;
61962;SDS011;47927;42.646;23.096;2023-04-04T06:14:22;4.60;;;3.30;;
61962;SDS011;47927;42.646;23.096;2023-04-04T06:16:48;5.65;;;3.53;;
61962;SDS011;47927;42.646;23.096;2023-04-04T06:19:14;5.97;;;3.15;;
61962;SDS011;47927;42.646;23.096;2023-04-04T06:21:40;5.47;;;3.33;;
61962;SDS011;47927;42.646;23.096;2023-04-04T06:24:07;6.25;;;3.42;;
61962;SDS011;47927;42.646;23.096;2023-04-04T06:26:32;6.25;;;3.97;;
61962;SDS011;47927;42.646;23.096;2023-04-04T06:29:00;4.05;;;2.22;;
61962;SDS011;47927;42.646;23.096;2023-04-04T06:31:30;2.35;;;1.20;;
61962;SDS011;47927;42.646;23.096;2023-04-04T06:34:01;2.70;;;1.30;;
61962;SDS011;47927;42.646;23.096;2023-04-04T06:36:30;1.52;;;0.90;;
61962;SDS011;47927;42.646;23.096;2023-04-04T06:39:00;1.90;;;1.00;;
61962;SDS011;47927;42.646;23.096;2023-04-04T06:41:25;1.48;;;0.80;;
61962;SDS011;47927;42.646;23.096;2023-04-04T06:43:52;1.38;;;0.80;;
61962;SDS011;47927;42.646;23.096;2023-04-04T06:46:17;1.67;;;0.90;;
61962;SDS011;47927;42.646;23.096;2023-04-04T06:48:43;1.02;;;0.60;;
61962;SDS011;47927;42.646;23.096;2023-04-04T06:51:09;1.15;;;0.60;;
61962;SDS011;47927;42.646;23.096;2023-04-04T06:53:39;1.60;;;0.70;;
61962;SDS011;47927;42.646;23.096;2023-04-04T06:56:05;0.93;;;0.52;;
61962;SDS011;47927;42.646;23.096;2023-04-04T06:58:31;2.42;;;0.70;;
61962;SDS011;47927;42.646;23.096;2023-04-04T07:00:59;0.98;;;0.40;;
61962;SDS011;47927;42.646;23.096;2023-04-04T07:03:26;0.63;;;0.40;;
61962;SDS011;47927;42.646;23.096;2023-04-04T07:05:51;1.17;;;0.70;;
61962;SDS011;47927;42.646;23.096;2023-04-04T07:08:17;0.57;;;0.50;;
61962;SDS011;47927;42.646;23.096;2023-04-04T07:10:43;0.60;;;0.50;;
61962;SDS011;47927;42.646;23.096;2023-04-04T07:13:08;0.32;;;0.30;;
61962;SDS011;47927;42.646;23.096;2023-04-04T07:15:34;0.70;;;0.50;;
61962;SDS011;47927;42.646;23.096;2023-04-04T07:17:59;0.60;;;0.47;;
61962;SDS011;47927;42.646;23.096;2023-04-04T07:20:26;0.70;;;0.50;;
61962;SDS011;47927;42.646;23.096;2023-04-04T07:22:52;1.02;;;0.60;;
61962;SDS011;47927;42.646;23.096;2023-04-04T07:25:18;0.50;;;0.40;;
61962;SDS011;47927;42.646;23.096;2023-04-04T07:27:44;0.55;;;0.40;;
61962;SDS011;47927;42.646;23.096;2023-04-04T07:30:10;0.60;;;0.40;;
61962;SDS011;47927;42.646;23.096;2023-04-04T07:32:37;0.75;;;0.50;;
61962;SDS011;47927;42.646;23.096;2023-04-04T07:35:05;0.47;;;0.32;;
61962;SDS011;47927;42.646;23.096;2023-04-04T07:37:32;0.63;;;0.40;;
61962;SDS011;47927;42.646;23.096;2023-04-04T07:39:58;0.60;;;0.40;;
61962;SDS011;47927;42.646;23.096;2023-04-04T07:42:23;0.40;;;0.30;;
61962;SDS011;47927;42.646;23.096;2023-04-04T07:44:49;0.55;;;0.40;;
61962;SDS011;47927;42.646;23.096;2023-04-04T07:47:16;0.35;;;0.30;;
61962;SDS011;47927;42.646;23.096;2023-04-04T07:49:42;0.98;;;0.40;;
61962;SDS011;47927;42.646;23.096;2023-04-04T07:52:08;0.50;;;0.40;;
61962;SDS011;47927;42.646;23.096;2023-04-04T07:54:34;0.50;;;0.40;;
61962;SDS011;47927;42.646;23.096;2023-04-04T07:56:59;0.40;;;0.30;;
61962;SDS011;47927;42.646;23.096;2023-04-04T07:59:25;0.75;;;0.43;;
61962;SDS011;47927;42.646;23.096;2023-04-04T08:01:51;0.98;;;0.50;;
61962;SDS011;47927;42.646;23.096;2023-04-04T08:04:17;0.40;;;0.35;;
61962;SDS011;47927;42.646;23.096;2023-04-04T08:06:42;0.35;;;0.30;;
61962;SDS011;47927;42.646;23.096;2023-04-04T08:09:08;0.60;;;0.40;;
61962;SDS011;47927;42.646;23.096;2023-04-04T08:11:34;0.98;;;0.50;;
61962;SDS011;47927;42.646;23.096;2023-04-04T08:13:59;0.60;;;0.40;;
61962;SDS011;47927;42.646;23.096;2023-04-04T08:16:25;1.40;;;0.65;;
61962;SDS011;47927;42.646;23.096;2023-04-04T08:18:50;1.58;;;0.80;;
61962;SDS011;47927;42.646;23.096;2023-04-04T08:21:17;3.63;;;1.48;;
61962;SDS011;47927;42.646;23.096;2023-04-04T08:23:43;5.32;;;2.10;;
61962;SDS011;47927;42.646;23.096;2023-04-04T08:26:09;5.53;;;2.22;;
61962;SDS011;47927;42.646;23.096;2023-04-04T08:28:36;2.83;;;1.50;;
61962;SDS011;47927;42.646;23.096;2023-04-04T08:31:02;1.38;;;0.82;;
61962;SDS011;47927;42.646;23.096;2023-04-04T08:33:28;6.97;;;1.20;;
61962;SDS011;47927;42.646;23.096;2023-04-04T08:35:54;2.13;;;0.90;;
61962;SDS011;47927;42.646;23.096;2023-04-04T08:38:21;2.83;;;1.00;;
61962;SDS011;47927;42.646;23.096;2023-04-04T08:40:47;2.22;;;1.10;;
61962;SDS011;47927;42.646;23.096;2023-04-04T08:43:14;1.65;;;0.68;;
61962;SDS011;47927;42.646;23.096;2023-04-04T08:45:41;1.10;;;0.60;;
61962;SDS011;47927;42.646;23.096;2023-04-04T08:48:13;0.40;;;0.30;;
61962;SDS011;47927;42.646;23.096;2023-04-04T08:50:40;0.70;;;0.50;;
61962;SDS011;47927;42.646;23.096;2023-04-04T08:53:09;0.80;;;0.47;;
61962;SDS011;47927;42.646;23.096;2023-04-04T08:55:36;0.70;;;0.40;;
61962;SDS011;47927;42.646;23.096;2023-04-04T08:58:02;1.05;;;0.50;;
61962;SDS011;47927;42.646;23.096;2023-04-04T09:00:29;1.42;;;0.68;;
61962;SDS011;47927;42.646;23.096;2023-04-04T09:02:55;1.60;;;0.80;;
61962;SDS011;47927;42.646;23.096;2023-04-04T09:05:22;0.88;;;0.60;;
61962;SDS011;47927;42.646;23.096;2023-04-04T09:07:49;0.55;;;0.40;;
61962;SDS011;47927;42.646;23.096;2023-04-04T09:10:16;0.98;;;0.60;;
61962;SDS011;47927;42.646;23.096;2023-04-04T09:12:44;2.03;;;0.80;;
61962;SDS011;47927;42.646;23.096;2023-04-04T09:15:11;1.35;;;0.70;;
61962;SDS011;47927;42.646;23.096;2023-04-04T09:17:38;1.70;;;0.50;;
61962;SDS011;47927;42.646;23.096;2023-04-04T09:20:32;0.85;;;0.55;;
61962;SDS011;47927;42.646;23.096;2023-04-04T09:23:00;0.80;;;0.50;;
61962;SDS011;47927;42.646;23.096;2023-04-04T09:25:25;1.50;;;0.70;;
61962;SDS011;47927;42.646;23.096;2023-04-04T09:27:51;2.85;;;0.88;;
61962;SDS011;47927;42.646;23.096;2023-04-04T09:30:17;4.75;;;1.45;;
61962;SDS011;47927;42.646;23.096;2023-04-04T09:32:43;4.05;;;1.40;;
61962;SDS011;47927;42.646;23.096;2023-04-04T09:35:09;3.15;;;1.17;;
61962;SDS011;47927;42.646;23.096;2023-04-04T09:37:39;2.05;;;0.70;;
61962;SDS011;47927;42.646;23.096;2023-04-04T09:40:05;1.00;;;0.70;;
61962;SDS011;47927;42.646;23.096;2023-04-04T09:42:33;1.60;;;0.68;;
61962;SDS011;47927;42.646;23.096;2023-04-04T09:44:59;1.08;;;0.60;;
61962;SDS011;47927;42.646;23.096;2023-04-04T09:47:26;1.13;;;0.70;;
61962;SDS011;47927;42.646;23.096;2023-04-04T09:49:58;3.63;;;0.55;;
61962;SDS011;47927;42.646;23.096;2023-04-04T09:52:24;0.50;;;0.40;;
61962;SDS011;47927;42.646;23.096;2023-04-04T09:57:32;2.58;;;0.90;;
61962;SDS011;47927;42.646;23.096;2023-04-04T09:59:59;1.45;;;0.75;;
61962;SDS011;47927;42.646;23.096;2023-04-04T10:02:26;1.38;;;0.85;;
61962;SDS011;47927;42.646;23.096;2023-04-04T10:04:54;2.20;;;1.00;;
61962;SDS011;47927;42.646;23.096;2023-04-04T10:07:30;1.85;;;0.82;;
61962;SDS011;47927;42.646;23.096;2023-04-04T10:09:59;2.50;;;1.13;;
61962;SDS011;47927;42.646;23.096;2023-04-04T10:12:25;1.80;;;0.93;;
61962;SDS011;47927;42.646;23.096;2023-04-04T10:14:55;1.52;;;0.80;;
61962;SDS011;47927;42.646;23.096;2023-04-04T10:17:29;1.30;;;0.60;;
61962;SDS011;47927;42.646;23.096;2023-04-04T10:20:05;2.25;;;1.13;;
61962;SDS011;47927;42.646;23.096;2023-04-04T10:22:36;1.38;;;0.73;;
61962;SDS011;47927;42.646;23.096;2023-04-04T10:25:06;2.75;;;1.00;;
61962;SDS011;47927;42.646;23.096;2023-04-04T10:27:33;1.35;;;0.70;;
61962;SDS011;47927;42.646;23.096;2023-04-04T10:29:59;1.70;;;0.80;;
61962;SDS011;47927;42.646;23.096;2023-04-04T10:35:02;1.63;;;0.80;;
61962;SDS011;47927;42.646;23.096;2023-04-04T10:37:33;2.92;;;1.33;;
61962;SDS011;47927;42.646;23.096;2023-04-04T10:40:12;1.92;;;0.80;;
61962;SDS011;47927;42.646;23.096;2023-04-04T10:42:41;2.00;;;0.80;;
61962;SDS011;47927;42.646;23.096;2023-04-04T10:45:09;1.60;;;0.80;;
61962;SDS011;47927;42.646;23.096;2023-04-04T10:47:37;1.40;;;0.73;;
61962;SDS011;47927;42.646;23.096;2023-04-04T10:50:04;1.38;;;0.63;;
61962;SDS011;47927;42.646;23.096;2023-04-04T10:52:43;2.80;;;1.08;;
61962;SDS011;47927;42.646;23.096;2023-04-04T10:55:11;1.40;;;0.60;;
61962;SDS011;47927;42.646;23.096;2023-04-04T10:57:44;1.60;;;0.80;;
61962;SDS011;47927;42.646;23.096;2023-04-04T11:00:15;1.75;;;0.90;;
61962;SDS011;47927;42.646;23.096;2023-04-04T11:02:45;2.97;;;1.00;;
61962;SDS011;47927;42.646;23.096;2023-04-04T11:05:11;2.08;;;0.80;;
61962;SDS011;47927;42.646;23.096;2023-04-04T11:08:02;3.00;;;1.27;;
61962;SDS011;47927;42.646;23.096;2023-04-04T11:10:36;0.73;;;0.60;;
61962;SDS011;47927;42.646;23.096;2023-04-04T11:13:09;1.92;;;0.85;;
61962;SDS011;47927;42.646;23.096;2023-04-04T11:19:07;2.00;;;1.00;;
61962;SDS011;47927;42.646;23.096;2023-04-04T11:21:08;1.58;;;0.80;;
61962;SDS011;47927;42.646;23.096;2023-04-04T11:26:17;2.63;;;1.13;;
61962;SDS011;47927;42.646;23.096;2023-04-04T11:28:54;1.48;;;0.82;;
61962;SDS011;47927;42.646;23.096;2023-04-04T11:31:22;2.03;;;0.80;;
61962;SDS011;47927;42.646;23.096;2023-04-04T11:33:53;3.05;;;0.80;;
61962;SDS011;47927;42.646;23.096;2023-04-04T11:39:15;1.92;;;0.93;;
61962;SDS011;47927;42.646;23.096;2023-04-04T11:44:19;3.17;;;1.30;;
61962;SDS011;47927;42.646;23.096;2023-04-04T11:49:27;4.07;;;1.30;;
61962;SDS011;47927;42.646;23.096;2023-04-04T11:51:54;3.88;;;1.10;;
61962;SDS011;47927;42.646;23.096;2023-04-04T11:54:21;4.45;;;1.30;;
61962;SDS011;47927;42.646;23.096;2023-04-04T11:56:47;2.05;;;1.13;;
61962;SDS011;47927;42.646;23.096;2023-04-04T11:59:17;1.95;;;1.30;;
61962;SDS011;47927;42.646;23.096;2023-04-04T12:01:44;2.50;;;1.40;;
61962;SDS011;47927;42.646;23.096;2023-04-04T12:04:10;2.55;;;1.08;;
61962;SDS011;47927;42.646;23.096;2023-04-04T12:06:39;3.70;;;1.55;;
61962;SDS011;47927;42.646;23.096;2023-04-04T12:09:05;3.60;;;1.50;;
61962;SDS011;47927;42.646;23.096;2023-04-04T12:11:34;2.60;;;1.40;;
61962;SDS011;47927;42.646;23.096;2023-04-04T12:14:01;1.45;;;0.93;;
61962;SDS011;47927;42.646;23.096;2023-04-04T12:16:26;3.10;;;1.17;;
61962;SDS011;47927;42.646;23.096;2023-04-04T12:18:55;2.80;;;1.30;;
61962;SDS011;47927;42.646;23.096;2023-04-04T12:21:34;2.40;;;1.35;;
61962;SDS011;47927;42.646;23.096;2023-04-04T12:24:00;2.60;;;1.42;;
61962;SDS011;47927;42.646;23.096;2023-04-04T12:26:29;2.00;;;1.23;;
61962;SDS011;47927;42.646;23.096;2023-04-04T12:28:56;2.70;;;1.30;;
61962;SDS011;47927;42.646;23.096;2023-04-04T12:31:24;2.30;;;1.40;;
61962;SDS011;47927;42.646;23.096;2023-04-04T12:33:57;2.15;;;1.10;;
61962;SDS011;47927;42.646;23.096;2023-04-04T12:36:30;2.22;;;1.05;;
61962;SDS011;47927;42.646;23.096;2023-04-04T12:39:06;2.70;;;1.55;;
61962;SDS011;47927;42.646;23.096;2023-04-04T12:41:34;2.05;;;1.15;;
61962;SDS011;47927;42.646;23.096;2023-04-04T12:44:03;2.25;;;1.30;;
61962;SDS011;47927;42.646;23.096;2023-04-04T12:46:40;2.25;;;1.10;;
61962;SDS011;47927;42.646;23.096;2023-04-04T12:49:06;1.73;;;1.10;;
61962;SDS011;47927;42.646;23.096;2023-04-04T12:51:34;2.22;;;1.45;;
61962;SDS011;47927;42.646;23.096;2023-04-04T12:54:00;1.30;;;0.90;;
61962;SDS011;47927;42.646;23.096;2023-04-04T12:56:28;2.33;;;1.20;;
61962;SDS011;47927;42.646;23.096;2023-04-04T12:58:59;2.10;;;1.20;;
61962;SDS011;47927;42.646;23.096;2023-04-04T13:01:28;2.20;;;1.25;;
61962;SDS011;47927;42.646;23.096;2023-04-04T13:04:00;2.20;;;1.27;;
61962;SDS011;47927;42.646;23.096;2023-04-04T13:06:30;2.88;;;1.30;;
61962;SDS011;47927;42.646;23.096;2023-04-04T13:08:56;2.90;;;1.60;;
61962;SDS011;47927;42.646;23.096;2023-04-04T13:11:22;2.67;;;1.60;;
61962;SDS011;47927;42.646;23.096;2023-04-04T13:13:58;2.15;;;1.20;;
61962;SDS011;47927;42.646;23.096;2023-04-04T13:16:29;2.25;;;1.20;;
61962;SDS011;47927;42.646;23.096;2023-04-04T13:19:00;2.10;;;1.40;;
61962;SDS011;47927;42.646;23.096;2023-04-04T13:21:26;1.63;;;1.13;;
61962;SDS011;47927;42.646;23.096;2023-04-04T13:23:51;2.83;;;1.25;;
61962;SDS011;47927;42.646;23.096;2023-04-04T13:26:17;3.45;;;1.20;;
61962;SDS011;47927;42.646;23.096;2023-04-04T13:28:43;3.70;;;1.65;;
61962;SDS011;47927;42.646;23.096;2023-04-04T13:31:08;3.30;;;1.40;;
61962;SDS011;47927;42.646;23.096;2023-04-04T13:33:35;2.42;;;1.38;;
61962;SDS011;47927;42.646;23.096;2023-04-04T13:36:02;2.88;;;1.55;;
61962;SDS011;47927;42.646;23.096;2023-04-04T13:38:28;2.30;;;1.50;;
61962;SDS011;47927;42.646;23.096;2023-04-04T13:40:56;6.10;;;1.42;;
61962;SDS011;47927;42.646;23.096;2023-04-04T13:43:22;2.13;;;1.48;;
61962;SDS011;47927;42.646;23.096;2023-04-04T13:45:48;2.80;;;1.73;;
61962;SDS011;47927;42.646;23.096;2023-04-04T13:48:14;3.45;;;1.65;;
61962;SDS011;47927;42.646;23.096;2023-04-04T13:50:41;2.40;;;1.40;;
61962;SDS011;47927;42.646;23.096;2023-04-04T13:53:09;3.25;;;1.70;;
61962;SDS011;47927;42.646;23.096;2023-04-04T13:55:38;2.78;;;1.70;;
61962;SDS011;47927;42.646;23.096;2023-04-04T13:58:04;3.65;;;1.98;;
61962;SDS011;47927;42.646;23.096;2023-04-04T14:00:29;2.67;;;1.63;;
61962;SDS011;47927;42.646;23.096;2023-04-04T14:02:56;3.45;;;1.80;;
61962;SDS011;47927;42.646;23.096;2023-04-04T14:05:22;3.53;;;1.60;;
61962;SDS011;47927;42.646;23.096;2023-04-04T14:07:48;2.30;;;1.35;;
61962;SDS011;47927;42.646;23.096;2023-04-04T14:10:13;3.17;;;1.80;;
61962;SDS011;47927;42.646;23.096;2023-04-04T14:12:39;2.67;;;1.60;;
61962;SDS011;47927;42.646;23.096;2023-04-04T14:15:05;4.60;;;2.88;;
61962;SDS011;47927;42.646;23.096;2023-04-04T14:17:34;2.90;;;1.80;;
61962;SDS011;47927;42.646;23.096;2023-04-04T14:20:01;3.75;;;2.17;;
61962;SDS011;47927;42.646;23.096;2023-04-04T14:22:27;4.25;;;2.20;;
61962;SDS011;47927;42.646;23.096;2023-04-04T14:24:52;5.18;;;2.10;;
61962;SDS011;47927;42.646;23.096;2023-04-04T14:27:18;3.70;;;1.80;;
61962;SDS011;47927;42.646;23.096;2023-04-04T14:29:43;3.65;;;2.05;;
61962;SDS011;47927;42.646;23.096;2023-04-04T14:32:09;4.07;;;2.42;;
61962;SDS011;47927;42.646;23.096;2023-04-04T14:34:35;4.03;;;2.33;;
61962;SDS011;47927;42.646;23.096;2023-04-04T14:37:01;3.30;;;1.90;;
61962;SDS011;47927;42.646;23.096;2023-04-04T14:39:28;3.00;;;1.80;;
61962;SDS011;47927;42.646;23.096;2023-04-04T14:41:53;3.65;;;2.20;;
61962;SDS011;47927;42.646;23.096;2023-04-04T14:44:20;3.08;;;2.00;;
61962;SDS011;47927;42.646;23.096;2023-04-04T14:46:46;3.63;;;2.33;;
61962;SDS011;47927;42.646;23.096;2023-04-04T14:49:11;3.95;;;2.28;;
61962;SDS011;47927;42.646;23.096;2023-04-04T14:51:37;4.80;;;2.70;;
61962;SDS011;47927;42.646;23.096;2023-04-04T14:54:02;4.40;;;2.00;;
61962;SDS011;47927;42.646;23.096;2023-04-04T14:56:28;3.35;;;2.28;;
61962;SDS011;47927;42.646;23.096;2023-04-04T14:58:54;4.13;;;2.33;;